Main page
METAR-TAF:

METAR-TAF

Airports :

Istres-Le Tubé Air Base

Istres, France

latitude: 43-31N, longitude: 004-56E, elevation: 23 m

Current weather observation

The report was made 32 minutes ago, at 23:30 UTC
Wind 6 kt from the Northwest
Temperature 17°C
Humidity 52%
Pressure 1015 hPa
Visibility 10 km or more
no clouds below 1500 m and no cumulonimbus

METAR: LFMI 222330Z AUTO 32006KT CAVOK 17/07 Q1015 NOSIG

Time: 02:02 (00:02 UTC)

Forecast

The report was made 4 hours and 2 minutes ago, at 20:00 UTC
Forecast valid from 22 at 21 UTC to 23 at 21 UTC
Wind 10 kt from the Northwest
Visibility 10 km or more
no clouds below 1500 m and no cumulonimbus
Becoming
from 23 at 03 UTC to 23 at 05 UTC
Wind 5 kt from the North
Becoming
from 23 at 10 UTC to 23 at 12 UTC
Wind 12 kt from the South
Becoming
from 23 at 20 UTC to 23 at 21 UTC
Wind 5 kt from the Southeast

TAF: LFMI 222000Z 2221/2321 32010KT CAVOK BECMG 2303/2305 35005KT BECMG 2310/2312 18012KT BECMG 2320/2321 14005KT

Weather observations and forecasts of more than 4000 airports (METAR and TAF reports).

The available stations are represented by yellow and red dots on the map.

Hover mouse over dot to see the name of the station.

Then click to see weather observations and forecasts.

To change the map : click on the green buttons with a black cross to zoom in, on the green button with a dash to zoom out, or on the green arrows for adjacent maps.


METAR-TAF: